PWSweather.com
Personal Weather Stations
Station Observations
WAREHAM1
West Wareham, MA 02576

West Wareham, MA 02576

Lat: 41.7961059, Lon: -70.775612

Elevation: 88

Station Type: Davis Vantage Vue

http://www.gateway2capecod.com

Latest ConditionsUpdated 3:37:04 PM EDT Tuesday, Jul 28, 2015
Currently Today's Max Today's Min Today's Average
Temperature 81.7°F27.6°C 86.7°F30.4°C 70.0°F21.1°C 75.7°F24.3°C
Dew Point 75.2°F24.0°C 76.5°F24.7°C 68.5°F20.3°C 71.7°F22.1°C
Winds Calm Calm 2.0 mph SE3.2 kmh SE - 0.5 mph 0.8 kmh
Wind Gusts 2.0 mph3.2 kmh 6.0 mph9.7 kmh - -
Humidity 81% 97% 67% 88%
Pressure 29.93 in1013.5 mb 30.04 in1017.3 mb 29.93 in1013.5 mb -
Hour Temp Dew Point Humidity Winds Wind Gusts Pressure Precip Precip Rate Daily Precip Total
03:37 PM 81.7°F27.6°C 75.2°F24.0°C 81% Calm Calm 2.0 mph3.2 kmh 29.93 in1013.5 mb 0.00 in0.0 mm 0.00 in0.0 mm 0.00 in0.0 mm
03:27 PM 82.0°F27.8°C 75.2°F24.0°C 80% Calm Calm 1.0 mph1.6 kmh 29.93 in1013.5 mb 0.00 in0.0 mm 0.00 in0.0 mm 0.00 in0.0 mm
03:17 PM 82.2°F27.9°C 75.4°F24.1°C 80% Calm Calm 2.0 mph3.2 kmh 29.93 in1013.5 mb 0.00 in0.0 mm 0.00 in0.0 mm 0.00 in0.0 mm
03:07 PM 82.9°F28.3°C 75.4°F24.1°C 78% 0.9 mph SE1.4 kmh SE 2.9 mph4.7 kmh 29.93 in1013.5 mb 0.00 in0.0 mm 0.00 in0.0 mm 0.00 in0.0 mm
02:57 PM 84.6°F29.2°C 76.1°F24.5°C 76% 0.9 mph SE1.4 kmh SE 3.0 mph4.8 kmh 29.93 in1013.5 mb 0.00 in0.0 mm 0.00 in0.0 mm 0.00 in0.0 mm
02:47 PM 84.9°F29.4°C 76.5°F24.7°C 76% Calm Calm 2.0 mph3.2 kmh 29.93 in1013.5 mb 0.00 in0.0 mm 0.00 in0.0 mm 0.00 in0.0 mm
02:37 PM 84.7°F29.3°C 76.3°F24.6°C 76% 2.0 mph SE3.2 kmh SE 2.9 mph4.7 kmh 29.93 in1013.5 mb 0.00 in0.0 mm 0.00 in0.0 mm 0.00 in0.0 mm
02:26 PM 84.0°F28.9°C 75.6°F24.2°C 76% 2.0 mph ESE3.2 kmh ESE 4.0 mph6.4 kmh 29.94 in1013.9 mb 0.00 in0.0 mm 0.00 in0.0 mm 0.00 in0.0 mm
02:16 PM 84.4°F29.1°C 75.9°F24.4°C 76% 2.0 mph ESE3.2 kmh ESE 4.0 mph6.4 kmh 29.94 in1013.9 mb 0.00 in0.0 mm 0.00 in0.0 mm 0.00 in0.0 mm
02:06 PM 84.7°F29.3°C 75.9°F24.4°C 75% 0.9 mph SE1.4 kmh SE 2.9 mph4.7 kmh 29.94 in1013.9 mb 0.00 in0.0 mm 0.00 in0.0 mm 0.00 in0.0 mm
01:56 PM 84.2°F29.0°C 75.7°F24.3°C 76% 2.0 mph SSW3.2 kmh SSW 4.0 mph6.4 kmh 29.94 in1013.9 mb 0.00 in0.0 mm 0.00 in0.0 mm 0.00 in0.0 mm
01:46 PM 83.7°F28.7°C 75.2°F24.0°C 76% 2.0 mph ESE3.2 kmh ESE 4.0 mph6.4 kmh 29.94 in1013.9 mb 0.00 in0.0 mm 0.00 in0.0 mm 0.00 in0.0 mm
01:36 PM 83.7°F28.7°C 75.7°F24.3°C 77% 0.9 mph ESE1.4 kmh ESE 4.0 mph6.4 kmh 29.95 in1014.2 mb 0.00 in0.0 mm 0.00 in0.0 mm 0.00 in0.0 mm
01:26 PM 83.1°F28.4°C 75.9°F24.4°C 79% 2.0 mph S3.2 kmh S 4.0 mph6.4 kmh 29.95 in1014.2 mb 0.00 in0.0 mm 0.00 in0.0 mm 0.00 in0.0 mm
01:16 PM 82.4°F28.0°C 75.2°F24.0°C 79% 2.0 mph SE3.2 kmh SE 4.0 mph6.4 kmh 29.95 in1014.2 mb 0.00 in0.0 mm 0.00 in0.0 mm 0.00 in0.0 mm
01:06 PM 82.9°F28.3°C 75.0°F23.9°C 77% 2.0 mph E3.2 kmh E 6.0 mph9.7 kmh 29.95 in1014.2 mb 0.00 in0.0 mm 0.00 in0.0 mm 0.00 in0.0 mm
12:56 PM 83.8°F28.8°C 75.4°F24.1°C 76% 2.0 mph SW3.2 kmh SW 6.0 mph9.7 kmh 29.96 in1014.6 mb 0.00 in0.0 mm 0.00 in0.0 mm 0.00 in0.0 mm
12:46 PM 85.6°F29.8°C 75.6°F24.2°C 72% 2.0 mph ENE3.2 kmh ENE 4.9 mph7.9 kmh 29.96 in1014.6 mb 0.00 in0.0 mm 0.00 in0.0 mm 0.00 in0.0 mm
12:36 PM 86.4°F30.2°C 75.4°F24.1°C 70% 0.9 mph W1.4 kmh W 4.0 mph6.4 kmh 29.96 in1014.6 mb 0.00 in0.0 mm 0.00 in0.0 mm 0.00 in0.0 mm
12:26 PM 86.7°F30.4°C 74.5°F23.6°C 67% 0.9 mph W1.4 kmh W 2.0 mph3.2 kmh 29.96 in1014.6 mb 0.00 in0.0 mm 0.00 in0.0 mm 0.00 in0.0 mm
12:16 PM 85.8°F29.9°C 74.5°F23.6°C 69% 0.9 mph WSW1.4 kmh WSW 2.9 mph4.7 kmh 29.96 in1014.6 mb 0.00 in0.0 mm 0.00 in0.0 mm 0.00 in0.0 mm
12:06 PM 85.5°F29.7°C 74.5°F23.6°C 70% 0.9 mph SSW1.4 kmh SSW 2.9 mph4.7 kmh 29.96 in1014.6 mb 0.00 in0.0 mm 0.00 in0.0 mm 0.00 in0.0 mm
11:56 AM 85.8°F29.9°C 74.5°F23.6°C 69% 0.9 mph SW1.4 kmh SW 2.9 mph4.7 kmh 29.96 in1014.6 mb 0.00 in0.0 mm 0.00 in0.0 mm 0.00 in0.0 mm
11:46 AM 85.1°F29.5°C 74.7°F23.7°C 71% 0.9 mph SW1.4 kmh SW 4.0 mph6.4 kmh 29.97 in1014.9 mb 0.00 in0.0 mm 0.00 in0.0 mm 0.00 in0.0 mm
11:36 AM 85.3°F29.6°C 74.8°F23.8°C 71% 0.9 mph SW1.4 kmh SW 2.9 mph4.7 kmh 29.98 in1015.2 mb 0.00 in0.0 mm 0.00 in0.0 mm 0.00 in0.0 mm
11:26 AM 83.8°F28.8°C 74.3°F23.5°C 73% 0.9 mph W1.4 kmh W 2.9 mph4.7 kmh 29.98 in1015.2 mb 0.00 in0.0 mm 0.00 in0.0 mm 0.00 in0.0 mm
11:16 AM 82.8°F28.2°C 73.9°F23.3°C 75% 0.9 mph SSW1.4 kmh SSW 4.0 mph6.4 kmh 29.98 in1015.2 mb 0.00 in0.0 mm 0.00 in0.0 mm 0.00 in0.0 mm
11:06 AM 81.1°F27.3°C 74.3°F23.5°C 80% 0.9 mph SSW1.4 kmh SSW 6.0 mph9.7 kmh 29.98 in1015.2 mb 0.00 in0.0 mm 0.00 in0.0 mm 0.00 in0.0 mm
10:56 AM 80.6°F27.0°C 73.4°F23.0°C 79% 0.9 mph W1.4 kmh W 4.9 mph7.9 kmh 29.98 in1015.2 mb 0.00 in0.0 mm 0.00 in0.0 mm 0.00 in0.0 mm
10:46 AM 80.6°F27.0°C 73.4°F23.0°C 79% 0.9 mph W1.4 kmh W 2.9 mph4.7 kmh 29.98 in1015.2 mb 0.00 in0.0 mm 0.00 in0.0 mm 0.00 in0.0 mm
10:36 AM 80.1°F26.7°C 73.8°F23.2°C 81% 0.9 mph SE1.4 kmh SE 4.0 mph6.4 kmh 29.97 in1014.9 mb 0.00 in0.0 mm 0.00 in0.0 mm 0.00 in0.0 mm
10:26 AM 79.7°F26.5°C 73.4°F23.0°C 81% Calm Calm 2.0 mph3.2 kmh 29.98 in1015.2 mb 0.00 in0.0 mm 0.00 in0.0 mm 0.00 in0.0 mm
10:16 AM 78.4°F25.8°C 73.2°F22.9°C 84% Calm Calm 2.9 mph4.7 kmh 29.98 in1015.2 mb 0.00 in0.0 mm 0.00 in0.0 mm 0.00 in0.0 mm
10:06 AM 77.7°F25.4°C 72.9°F22.7°C 85% Calm Calm 2.9 mph4.7 kmh 29.99 in1015.6 mb 0.00 in0.0 mm 0.00 in0.0 mm 0.00 in0.0 mm
09:56 AM 77.4°F25.2°C 72.5°F22.5°C 85% 0.9 mph WSW1.4 kmh WSW 3.0 mph4.8 kmh 29.99 in1015.6 mb 0.00 in0.0 mm 0.00 in0.0 mm 0.00 in0.0 mm
09:46 AM 76.3°F24.6°C 72.1°F22.3°C 87% 0.9 mph SSW1.4 kmh SSW 2.0 mph3.2 kmh 29.99 in1015.6 mb 0.00 in0.0 mm 0.00 in0.0 mm 0.00 in0.0 mm
09:36 AM 75.7°F24.3°C 72.0°F22.2°C 88% 0.9 mph S1.4 kmh S 3.0 mph4.8 kmh 29.99 in1015.6 mb 0.00 in0.0 mm 0.00 in0.0 mm 0.00 in0.0 mm
09:26 AM 74.8°F23.8°C 71.8°F22.1°C 90% 0.9 mph WSW1.4 kmh WSW 2.9 mph4.7 kmh 29.99 in1015.6 mb 0.00 in0.0 mm 0.00 in0.0 mm 0.00 in0.0 mm
09:16 AM 74.5°F23.6°C 71.4°F21.9°C 90% Calm Calm 3.0 mph4.8 kmh 30.00 in1015.9 mb 0.00 in0.0 mm 0.00 in0.0 mm 0.00 in0.0 mm
09:06 AM 73.9°F23.3°C 70.9°F21.6°C 90% 0.9 mph WNW1.4 kmh WNW 2.9 mph4.7 kmh 30.00 in1015.9 mb 0.00 in0.0 mm 0.00 in0.0 mm 0.00 in0.0 mm
08:56 AM 73.8°F23.2°C 70.9°F21.6°C 91% 0.9 mph W1.4 kmh W 2.9 mph4.7 kmh 30.00 in1015.9 mb 0.00 in0.0 mm 0.00 in0.0 mm 0.00 in0.0 mm
08:46 AM 73.6°F23.1°C 71.1°F21.7°C 92% Calm Calm 2.9 mph4.7 kmh 30.01 in1016.3 mb 0.00 in0.0 mm 0.00 in0.0 mm 0.00 in0.0 mm
08:36 AM 73.2°F22.9°C 71.1°F21.7°C 93% Calm Calm 2.9 mph4.7 kmh 30.01 in1016.3 mb 0.00 in0.0 mm 0.00 in0.0 mm 0.00 in0.0 mm
08:26 AM 72.9°F22.7°C 71.1°F21.7°C 94% 0.9 mph W1.4 kmh W 2.9 mph4.7 kmh 30.01 in1016.3 mb 0.00 in0.0 mm 0.00 in0.0 mm 0.00 in0.0 mm
08:16 AM 72.7°F22.6°C 71.2°F21.8°C 95% 0.9 mph SSW1.4 kmh SSW 2.0 mph3.2 kmh 30.00 in1015.9 mb 0.00 in0.0 mm 0.00 in0.0 mm 0.00 in0.0 mm
08:06 AM 72.1°F22.3°C 70.9°F21.6°C 96% 0.9 mph WSW1.4 kmh WSW 3.0 mph4.8 kmh 30.01 in1016.3 mb 0.00 in0.0 mm 0.00 in0.0 mm 0.00 in0.0 mm
07:56 AM 71.8°F22.1°C 70.5°F21.4°C 96% Calm Calm 2.0 mph3.2 kmh 30.01 in1016.3 mb 0.00 in0.0 mm 0.00 in0.0 mm 0.00 in0.0 mm
07:46 AM 71.4°F21.9°C 70.2°F21.2°C 96% Calm Calm 0.9 mph1.4 kmh 30.01 in1016.3 mb 0.00 in0.0 mm 0.00 in0.0 mm 0.00 in0.0 mm
07:36 AM 71.2°F21.8°C 70.3°F21.3°C 97% Calm Calm 2.0 mph3.2 kmh 30.01 in1016.3 mb 0.00 in0.0 mm 0.00 in0.0 mm 0.00 in0.0 mm
07:26 AM 71.1°F21.7°C 70.2°F21.2°C 97% Calm Calm 2.0 mph3.2 kmh 30.01 in1016.3 mb 0.00 in0.0 mm 0.00 in0.0 mm 0.00 in0.0 mm
07:16 AM 70.9°F21.6°C 70.0°F21.1°C 97% Calm Calm 2.0 mph3.2 kmh 30.01 in1016.3 mb 0.00 in0.0 mm 0.00 in0.0 mm 0.00 in0.0 mm
07:06 AM 70.7°F21.5°C 69.8°F21.0°C 97% Calm Calm 0.9 mph1.4 kmh 30.01 in1016.3 mb 0.00 in0.0 mm 0.00 in0.0 mm 0.00 in0.0 mm
06:56 AM 70.5°F21.4°C 69.6°F20.9°C 97% Calm Calm 2.0 mph3.2 kmh 30.01 in1016.3 mb 0.00 in0.0 mm 0.00 in0.0 mm 0.00 in0.0 mm
06:46 AM 70.5°F21.4°C 69.6°F20.9°C 97% Calm Calm 2.0 mph3.2 kmh 30.01 in1016.3 mb 0.00 in0.0 mm 0.00 in0.0 mm 0.00 in0.0 mm
06:36 AM 70.3°F21.3°C 69.4°F20.8°C 97% Calm Calm 0.9 mph1.4 kmh 30.01 in1016.3 mb 0.00 in0.0 mm 0.00 in0.0 mm 0.00 in0.0 mm
06:26 AM 70.2°F21.2°C 69.3°F20.7°C 97% Calm Calm 4.0 mph6.4 kmh 30.01 in1016.3 mb 0.00 in0.0 mm 0.00 in0.0 mm 0.00 in0.0 mm
06:16 AM 70.0°F21.1°C 69.1°F20.6°C 97% Calm Calm 0.9 mph1.4 kmh 30.01 in1016.3 mb 0.00 in0.0 mm 0.00 in0.0 mm 0.00 in0.0 mm
06:06 AM 70.0°F21.1°C 69.1°F20.6°C 97% Calm Calm -- 30.01 in1016.3 mb 0.00 in0.0 mm 0.00 in0.0 mm 0.00 in0.0 mm
05:56 AM 70.0°F21.1°C 68.7°F20.4°C 96% Calm Calm -- 30.01 in1016.3 mb 0.00 in0.0 mm 0.00 in0.0 mm 0.00 in0.0 mm
05:46 AM 70.0°F21.1°C 68.7°F20.4°C 96% Calm Calm -- 30.01 in1016.3 mb 0.00 in0.0 mm 0.00 in0.0 mm 0.00 in0.0 mm
05:36 AM 70.2°F21.2°C 68.9°F20.5°C 96% Calm Calm -- 30.00 in1015.9 mb 0.00 in0.0 mm 0.00 in0.0 mm 0.00 in0.0 mm
05:26 AM 70.3°F21.3°C 69.1°F20.6°C 96% Calm Calm -- 30.00 in1015.9 mb 0.00 in0.0 mm 0.00 in0.0 mm 0.00 in0.0 mm
05:16 AM 70.3°F21.3°C 69.1°F20.6°C 96% Calm Calm -- 30.01 in1016.3 mb 0.00 in0.0 mm 0.00 in0.0 mm 0.00 in0.0 mm
05:06 AM 70.5°F21.4°C 69.3°F20.7°C 96% Calm Calm -- 30.01 in1016.3 mb 0.00 in0.0 mm 0.00 in0.0 mm 0.00 in0.0 mm
04:56 AM 70.9°F21.6°C 69.6°F20.9°C 96% Calm Calm -- 30.01 in1016.3 mb 0.00 in0.0 mm 0.00 in0.0 mm 0.00 in0.0 mm
04:46 AM 71.1°F21.7°C 69.8°F21.0°C 96% Calm Calm -- 30.01 in1016.3 mb 0.00 in0.0 mm 0.00 in0.0 mm 0.00 in0.0 mm
04:36 AM 71.1°F21.7°C 69.8°F21.0°C 96% Calm Calm -- 30.01 in1016.3 mb 0.00 in0.0 mm 0.00 in0.0 mm 0.00 in0.0 mm
04:26 AM 71.1°F21.7°C 69.8°F21.0°C 96% Calm Calm -- 30.01 in1016.3 mb 0.00 in0.0 mm 0.00 in0.0 mm 0.00 in0.0 mm
04:16 AM 71.2°F21.8°C 70.0°F21.1°C 96% Calm Calm -- 30.02 in1016.6 mb 0.00 in0.0 mm 0.00 in0.0 mm 0.00 in0.0 mm
04:06 AM 71.1°F21.7°C 69.8°F21.0°C 96% Calm Calm -- 30.01 in1016.3 mb 0.00 in0.0 mm 0.00 in0.0 mm 0.00 in0.0 mm
03:56 AM 71.1°F21.7°C 69.8°F21.0°C 96% Calm Calm -- 30.01 in1016.3 mb 0.00 in0.0 mm 0.00 in0.0 mm 0.00 in0.0 mm
03:46 AM 71.1°F21.7°C 69.8°F21.0°C 96% Calm Calm -- 30.01 in1016.3 mb 0.00 in0.0 mm 0.00 in0.0 mm 0.00 in0.0 mm
03:36 AM 70.9°F21.6°C 69.6°F20.9°C 96% Calm Calm -- 30.01 in1016.3 mb 0.00 in0.0 mm 0.00 in0.0 mm 0.00 in0.0 mm
03:26 AM 70.9°F21.6°C 69.6°F20.9°C 96% Calm Calm -- 30.01 in1016.3 mb 0.00 in0.0 mm 0.00 in0.0 mm 0.00 in0.0 mm
03:16 AM 70.9°F21.6°C 69.6°F20.9°C 96% Calm Calm -- 30.01 in1016.3 mb 0.00 in0.0 mm 0.00 in0.0 mm 0.00 in0.0 mm
03:06 AM 70.9°F21.6°C 69.6°F20.9°C 96% Calm Calm -- 30.02 in1016.6 mb 0.00 in0.0 mm 0.00 in0.0 mm 0.00 in0.0 mm
02:56 AM 70.9°F21.6°C 69.6°F20.9°C 96% Calm Calm -- 30.02 in1016.6 mb 0.00 in0.0 mm 0.00 in0.0 mm 0.00 in0.0 mm
02:46 AM 70.9°F21.6°C 69.6°F20.9°C 96% Calm Calm -- 30.02 in1016.6 mb 0.00 in0.0 mm 0.00 in0.0 mm 0.00 in0.0 mm
02:36 AM 70.9°F21.6°C 69.6°F20.9°C 96% Calm Calm -- 30.02 in1016.6 mb 0.00 in0.0 mm 0.00 in0.0 mm 0.00 in0.0 mm
02:26 AM 70.9°F21.6°C 69.6°F20.9°C 96% Calm Calm -- 30.02 in1016.6 mb 0.00 in0.0 mm 0.00 in0.0 mm 0.00 in0.0 mm
02:16 AM 70.7°F21.5°C 69.4°F20.8°C 96% Calm Calm -- 30.02 in1016.6 mb 0.00 in0.0 mm 0.00 in0.0 mm 0.00 in0.0 mm
02:06 AM 70.7°F21.5°C 69.4°F20.8°C 96% Calm Calm -- 30.02 in1016.6 mb 0.00 in0.0 mm 0.00 in0.0 mm 0.00 in0.0 mm
01:56 AM 70.5°F21.4°C 69.3°F20.7°C 96% Calm Calm -- 30.02 in1016.6 mb 0.00 in0.0 mm 0.00 in0.0 mm 0.00 in0.0 mm
01:46 AM 70.5°F21.4°C 69.3°F20.7°C 96% Calm Calm -- 30.02 in1016.6 mb 0.00 in0.0 mm 0.00 in0.0 mm 0.00 in0.0 mm
01:36 AM 70.3°F21.3°C 69.1°F20.6°C 96% Calm Calm -- 30.02 in1016.6 mb 0.00 in0.0 mm 0.00 in0.0 mm 0.00 in0.0 mm
01:26 AM 70.3°F21.3°C 69.1°F20.6°C 96% Calm Calm -- 30.02 in1016.6 mb 0.00 in0.0 mm 0.00 in0.0 mm 0.00 in0.0 mm
01:16 AM 70.3°F21.3°C 69.1°F20.6°C 96% Calm Calm -- 30.02 in1016.6 mb 0.00 in0.0 mm 0.00 in0.0 mm 0.00 in0.0 mm
01:06 AM 70.2°F21.2°C 68.9°F20.5°C 96% Calm Calm -- 30.03 in1016.9 mb 0.00 in0.0 mm 0.00 in0.0 mm 0.00 in0.0 mm
12:56 AM 70.2°F21.2°C 68.9°F20.5°C 96% Calm Calm -- 30.03 in1016.9 mb 0.00 in0.0 mm 0.00 in0.0 mm 0.00 in0.0 mm
12:46 AM 70.0°F21.1°C 68.7°F20.4°C 96% Calm Calm -- 30.03 in1016.9 mb 0.00 in0.0 mm 0.00 in0.0 mm 0.00 in0.0 mm
12:36 AM 70.0°F21.1°C 68.5°F20.3°C 95% Calm Calm -- 30.03 in1016.9 mb 0.00 in0.0 mm 0.00 in0.0 mm 0.00 in0.0 mm
12:26 AM 70.2°F21.2°C 68.7°F20.4°C 95% Calm Calm -- 30.03 in1016.9 mb 0.00 in0.0 mm 0.00 in0.0 mm 0.00 in0.0 mm
12:16 AM 70.2°F21.2°C 68.7°F20.4°C 95% Calm Calm -- 30.03 in1016.9 mb 0.00 in0.0 mm 0.00 in0.0 mm 0.00 in0.0 mm
12:06 AM 70.3°F21.3°C 68.9°F20.5°C 95% Calm Calm -- 30.04 in1017.3 mb 0.00 in0.0 mm 0.00 in0.0 mm 0.00 in0.0 mm